sensor_id;sensor_type;location;lat;lon;timestamp;P1;durP1;ratioP1;P2;durP2;ratioP2
17528;SDS011;8882;53.192;8.184;2022-11-20T08:05:09;9.40;;;5.80;;
17528;SDS011;8882;53.192;8.184;2022-11-20T08:07:36;12.97;;;6.37;;
17528;SDS011;8882;53.192;8.184;2022-11-20T08:10:06;9.50;;;6.40;;
17528;SDS011;8882;53.192;8.184;2022-11-20T08:12:33;8.67;;;6.13;;
17528;SDS011;8882;53.192;8.184;2022-11-20T08:15:17;10.27;;;6.37;;
17528;SDS011;8882;53.192;8.184;2022-11-20T08:17:42;11.37;;;6.73;;
17528;SDS011;8882;53.192;8.184;2022-11-20T08:20:08;11.37;;;7.17;;
17528;SDS011;8882;53.192;8.184;2022-11-20T08:22:34;12.27;;;6.87;;
17528;SDS011;8882;53.192;8.184;2022-11-20T08:24:59;10.63;;;7.00;;
17528;SDS011;8882;53.192;8.184;2022-11-20T08:27:25;13.57;;;5.90;;
17528;SDS011;8882;53.192;8.184;2022-11-20T08:29:50;11.43;;;7.03;;
17528;SDS011;8882;53.192;8.184;2022-11-20T08:32:16;13.27;;;6.57;;
17528;SDS011;8882;53.192;8.184;2022-11-20T08:34:41;12.73;;;6.97;;
17528;SDS011;8882;53.192;8.184;2022-11-20T08:37:07;13.07;;;7.07;;
17528;SDS011;8882;53.192;8.184;2022-11-20T08:39:32;10.67;;;6.53;;
17528;SDS011;8882;53.192;8.184;2022-11-20T08:41:58;12.60;;;7.27;;
17528;SDS011;8882;53.192;8.184;2022-11-20T08:44:23;11.50;;;7.23;;
17528;SDS011;8882;53.192;8.184;2022-11-20T08:46:49;11.70;;;7.07;;
17528;SDS011;8882;53.192;8.184;2022-11-20T08:49:14;11.37;;;7.07;;
17528;SDS011;8882;53.192;8.184;2022-11-20T08:51:40;10.77;;;6.33;;
17528;SDS011;8882;53.192;8.184;2022-11-20T08:54:06;11.20;;;7.00;;
17528;SDS011;8882;53.192;8.184;2022-11-20T08:56:32;10.90;;;7.27;;
17528;SDS011;8882;53.192;8.184;2022-11-20T08:58:57;12.67;;;7.40;;
17528;SDS011;8882;53.192;8.184;2022-11-20T09:01:26;13.60;;;7.33;;
17528;SDS011;8882;53.192;8.184;2022-11-20T09:03:52;12.23;;;7.90;;
17528;SDS011;8882;53.192;8.184;2022-11-20T09:06:19;11.70;;;6.83;;
17528;SDS011;8882;53.192;8.184;2022-11-20T09:08:45;9.93;;;6.77;;
17528;SDS011;8882;53.192;8.184;2022-11-20T09:11:10;11.23;;;7.03;;
17528;SDS011;8882;53.192;8.184;2022-11-20T09:13:36;12.07;;;6.90;;
17528;SDS011;8882;53.192;8.184;2022-11-20T09:16:03;10.17;;;7.40;;
17528;SDS011;8882;53.192;8.184;2022-11-20T09:18:33;10.70;;;6.50;;
17528;SDS011;8882;53.192;8.184;2022-11-20T09:21:04;10.17;;;6.90;;
17528;SDS011;8882;53.192;8.184;2022-11-20T09:23:32;9.97;;;6.20;;
17528;SDS011;8882;53.192;8.184;2022-11-20T09:26:06;11.83;;;7.10;;
17528;SDS011;8882;53.192;8.184;2022-11-20T09:28:34;12.30;;;7.57;;
17528;SDS011;8882;53.192;8.184;2022-11-20T09:31:00;12.63;;;7.33;;
17528;SDS011;8882;53.192;8.184;2022-11-20T09:33:25;13.00;;;7.47;;
17528;SDS011;8882;53.192;8.184;2022-11-20T09:35:51;12.77;;;7.47;;
17528;SDS011;8882;53.192;8.184;2022-11-20T09:38:17;14.63;;;8.07;;
17528;SDS011;8882;53.192;8.184;2022-11-20T09:40:48;56.40;;;26.97;;
17528;SDS011;8882;53.192;8.184;2022-11-20T09:43:25;15.80;;;9.07;;
17528;SDS011;8882;53.192;8.184;2022-11-20T09:51:06;15.33;;;8.10;;
17528;SDS011;8882;53.192;8.184;2022-11-20T09:56:19;12.63;;;7.57;;
17528;SDS011;8882;53.192;8.184;2022-11-20T09:58:47;17.40;;;10.23;;
17528;SDS011;8882;53.192;8.184;2022-11-20T10:04:03;13.27;;;7.33;;
17528;SDS011;8882;53.192;8.184;2022-11-20T10:06:47;17.40;;;6.83;;
17528;SDS011;8882;53.192;8.184;2022-11-20T10:09:35;11.33;;;7.27;;
17528;SDS011;8882;53.192;8.184;2022-11-20T10:17:58;14.00;;;7.57;;
17528;SDS011;8882;53.192;8.184;2022-11-20T10:20:55;10.43;;;7.07;;
17528;SDS011;8882;53.192;8.184;2022-11-20T10:26:31;10.27;;;6.37;;
17528;SDS011;8882;53.192;8.184;2022-11-20T10:29:17;12.83;;;6.77;;
17528;SDS011;8882;53.192;8.184;2022-11-20T10:31:59;12.73;;;6.70;;
17528;SDS011;8882;53.192;8.184;2022-11-20T10:34:29;11.80;;;6.70;;
17528;SDS011;8882;53.192;8.184;2022-11-20T10:36:59;10.03;;;6.80;;
17528;SDS011;8882;53.192;8.184;2022-11-20T10:39:32;11.67;;;6.97;;
17528;SDS011;8882;53.192;8.184;2022-11-20T10:42:04;12.93;;;7.23;;
17528;SDS011;8882;53.192;8.184;2022-11-20T10:44:35;9.47;;;6.20;;
17528;SDS011;8882;53.192;8.184;2022-11-20T10:47:22;9.27;;;6.33;;
17528;SDS011;8882;53.192;8.184;2022-11-20T10:49:52;10.17;;;6.87;;
17528;SDS011;8882;53.192;8.184;2022-11-20T10:52:42;12.80;;;6.90;;
17528;SDS011;8882;53.192;8.184;2022-11-20T10:58:16;11.00;;;6.77;;
17528;SDS011;8882;53.192;8.184;2022-11-20T11:00:44;10.47;;;6.30;;
17528;SDS011;8882;53.192;8.184;2022-11-20T11:03:26;9.43;;;5.60;;
17528;SDS011;8882;53.192;8.184;2022-11-20T11:05:54;7.00;;;5.47;;
17528;SDS011;8882;53.192;8.184;2022-11-20T11:08:28;9.10;;;6.07;;
17528;SDS011;8882;53.192;8.184;2022-11-20T11:11:11;7.83;;;5.40;;
17528;SDS011;8882;53.192;8.184;2022-11-20T11:13:48;9.10;;;5.13;;
17528;SDS011;8882;53.192;8.184;2022-11-20T11:16:22;9.77;;;5.50;;
17528;SDS011;8882;53.192;8.184;2022-11-20T11:18:49;6.40;;;4.73;;
17528;SDS011;8882;53.192;8.184;2022-11-20T11:21:20;8.23;;;5.47;;
17528;SDS011;8882;53.192;8.184;2022-11-20T11:23:48;7.80;;;5.17;;
17528;SDS011;8882;53.192;8.184;2022-11-20T11:26:24;7.50;;;5.33;;
17528;SDS011;8882;53.192;8.184;2022-11-20T11:28:57;7.67;;;5.37;;
17528;SDS011;8882;53.192;8.184;2022-11-20T11:33:51;8.60;;;4.70;;
17528;SDS011;8882;53.192;8.184;2022-11-20T11:36:21;9.40;;;5.13;;
17528;SDS011;8882;53.192;8.184;2022-11-20T11:38:51;6.13;;;4.60;;
17528;SDS011;8882;53.192;8.184;2022-11-20T11:41:20;6.30;;;4.77;;
17528;SDS011;8882;53.192;8.184;2022-11-20T11:43:55;6.70;;;4.30;;
17528;SDS011;8882;53.192;8.184;2022-11-20T11:46:52;7.87;;;4.87;;
17528;SDS011;8882;53.192;8.184;2022-11-20T11:49:19;7.40;;;5.43;;
17528;SDS011;8882;53.192;8.184;2022-11-20T11:54:43;7.13;;;4.37;;
17528;SDS011;8882;53.192;8.184;2022-11-20T11:57:16;6.30;;;4.47;;
17528;SDS011;8882;53.192;8.184;2022-11-20T12:07:46;10.17;;;6.57;;
17528;SDS011;8882;53.192;8.184;2022-11-20T12:10:38;8.17;;;4.90;;
17528;SDS011;8882;53.192;8.184;2022-11-20T12:13:30;9.03;;;4.77;;
17528;SDS011;8882;53.192;8.184;2022-11-20T12:16:07;6.90;;;5.00;;
17528;SDS011;8882;53.192;8.184;2022-11-20T12:18:38;7.20;;;4.90;;
17528;SDS011;8882;53.192;8.184;2022-11-20T12:23:45;6.53;;;4.50;;
17528;SDS011;8882;53.192;8.184;2022-11-20T12:26:41;7.57;;;4.97;;
17528;SDS011;8882;53.192;8.184;2022-11-20T12:29:18;9.90;;;5.60;;
17528;SDS011;8882;53.192;8.184;2022-11-20T12:32:02;7.43;;;5.07;;
17528;SDS011;8882;53.192;8.184;2022-11-20T12:34:47;8.13;;;4.97;;
17528;SDS011;8882;53.192;8.184;2022-11-20T12:37:43;9.90;;;5.33;;
17528;SDS011;8882;53.192;8.184;2022-11-20T12:40:27;11.57;;;6.23;;
17528;SDS011;8882;53.192;8.184;2022-11-20T12:43:19;9.30;;;5.83;;
17528;SDS011;8882;53.192;8.184;2022-11-20T12:46:13;6.53;;;4.73;;
17528;SDS011;8882;53.192;8.184;2022-11-20T12:49:02;8.27;;;5.20;;
17528;SDS011;8882;53.192;8.184;2022-11-20T12:51:55;12.27;;;4.80;;
17528;SDS011;8882;53.192;8.184;2022-11-20T12:54:37;6.80;;;4.70;;
17528;SDS011;8882;53.192;8.184;2022-11-20T13:00:06;9.53;;;5.00;;
17528;SDS011;8882;53.192;8.184;2022-11-20T13:02:55;7.57;;;4.87;;
17528;SDS011;8882;53.192;8.184;2022-11-20T13:05:37;7.50;;;4.80;;
17528;SDS011;8882;53.192;8.184;2022-11-20T13:08:23;10.67;;;4.73;;
17528;SDS011;8882;53.192;8.184;2022-11-20T13:13:33;7.13;;;4.57;;
17528;SDS011;8882;53.192;8.184;2022-11-20T13:16:20;6.60;;;4.70;;
17528;SDS011;8882;53.192;8.184;2022-11-20T13:19:02;6.47;;;4.47;;
17528;SDS011;8882;53.192;8.184;2022-11-20T13:26:43;7.43;;;5.00;;
17528;SDS011;8882;53.192;8.184;2022-11-20T13:29:16;8.23;;;4.90;;
17528;SDS011;8882;53.192;8.184;2022-11-20T13:31:44;7.17;;;4.47;;
17528;SDS011;8882;53.192;8.184;2022-11-20T13:34:22;5.93;;;4.17;;
17528;SDS011;8882;53.192;8.184;2022-11-20T13:36:50;7.50;;;4.47;;
17528;SDS011;8882;53.192;8.184;2022-11-20T13:39:24;6.33;;;4.77;;
17528;SDS011;8882;53.192;8.184;2022-11-20T13:41:55;6.23;;;4.33;;
17528;SDS011;8882;53.192;8.184;2022-11-20T13:44:30;4.83;;;3.43;;
17528;SDS011;8882;53.192;8.184;2022-11-20T13:47:02;7.90;;;4.57;;
17528;SDS011;8882;53.192;8.184;2022-11-20T13:49:33;9.13;;;4.60;;
17528;SDS011;8882;53.192;8.184;2022-11-20T13:55:19;8.43;;;5.00;;
17528;SDS011;8882;53.192;8.184;2022-11-20T14:00:32;8.17;;;4.80;;
17528;SDS011;8882;53.192;8.184;2022-11-20T14:02:59;6.67;;;4.03;;
17528;SDS011;8882;53.192;8.184;2022-11-20T14:05:39;7.30;;;4.50;;
17528;SDS011;8882;53.192;8.184;2022-11-20T14:08:14;6.53;;;4.43;;
17528;SDS011;8882;53.192;8.184;2022-11-20T14:10:48;7.47;;;4.70;;
17528;SDS011;8882;53.192;8.184;2022-11-20T14:13:18;7.23;;;4.67;;
17528;SDS011;8882;53.192;8.184;2022-11-20T14:15:44;6.03;;;4.57;;
17528;SDS011;8882;53.192;8.184;2022-11-20T14:18:19;6.70;;;4.57;;
17528;SDS011;8882;53.192;8.184;2022-11-20T14:20:46;6.20;;;4.30;;
17528;SDS011;8882;53.192;8.184;2022-11-20T14:23:12;7.23;;;5.03;;
17528;SDS011;8882;53.192;8.184;2022-11-20T14:25:48;9.17;;;5.43;;
17528;SDS011;8882;53.192;8.184;2022-11-20T14:28:19;7.70;;;4.67;;
17528;SDS011;8882;53.192;8.184;2022-11-20T14:30:53;5.50;;;4.33;;
17528;SDS011;8882;53.192;8.184;2022-11-20T14:33:20;5.47;;;3.97;;
17528;SDS011;8882;53.192;8.184;2022-11-20T14:35:50;7.53;;;4.50;;
17528;SDS011;8882;53.192;8.184;2022-11-20T14:38:20;6.43;;;3.90;;
17528;SDS011;8882;53.192;8.184;2022-11-20T14:40:49;5.27;;;4.13;;
17528;SDS011;8882;53.192;8.184;2022-11-20T14:45:56;5.47;;;4.27;;
17528;SDS011;8882;53.192;8.184;2022-11-20T14:48:27;6.27;;;4.67;;
17528;SDS011;8882;53.192;8.184;2022-11-20T14:50:58;6.00;;;4.20;;
17528;SDS011;8882;53.192;8.184;2022-11-20T14:53:24;5.80;;;4.77;;
17528;SDS011;8882;53.192;8.184;2022-11-20T14:55:54;9.70;;;5.37;;
17528;SDS011;8882;53.192;8.184;2022-11-20T14:58:25;7.70;;;4.97;;
17528;SDS011;8882;53.192;8.184;2022-11-20T15:00:56;7.93;;;5.30;;
17528;SDS011;8882;53.192;8.184;2022-11-20T15:03:30;7.03;;;4.70;;
17528;SDS011;8882;53.192;8.184;2022-11-20T15:06:03;6.50;;;4.10;;
17528;SDS011;8882;53.192;8.184;2022-11-20T15:08:30;5.63;;;4.53;;
17528;SDS011;8882;53.192;8.184;2022-11-20T15:10:56;7.30;;;4.87;;
17528;SDS011;8882;53.192;8.184;2022-11-20T15:13:32;7.27;;;4.97;;
17528;SDS011;8882;53.192;8.184;2022-11-20T15:16:01;7.73;;;5.17;;
17528;SDS011;8882;53.192;8.184;2022-11-20T15:21:06;8.40;;;7.00;;
17528;SDS011;8882;53.192;8.184;2022-11-20T15:23:38;10.13;;;7.28;;
17528;SDS011;8882;53.192;8.184;2022-11-20T15:26:04;8.87;;;5.93;;
17528;SDS011;8882;53.192;8.184;2022-11-20T15:28:31;11.50;;;6.10;;
17528;SDS011;8882;53.192;8.184;2022-11-20T15:30:59;10.20;;;6.43;;
17528;SDS011;8882;53.192;8.184;2022-11-20T15:33:27;8.93;;;6.33;;
17528;SDS011;8882;53.192;8.184;2022-11-20T15:35:52;11.23;;;7.00;;
17528;SDS011;8882;53.192;8.184;2022-11-20T15:38:18;11.13;;;6.90;;
17528;SDS011;8882;53.192;8.184;2022-11-20T15:40:43;9.73;;;7.00;;
17528;SDS011;8882;53.192;8.184;2022-11-20T15:43:09;11.70;;;6.73;;
17528;SDS011;8882;53.192;8.184;2022-11-20T15:45:41;14.50;;;7.57;;
17528;SDS011;8882;53.192;8.184;2022-11-20T15:48:11;14.67;;;8.67;;
17528;SDS011;8882;53.192;8.184;2022-11-20T15:50:46;15.50;;;10.90;;
17528;SDS011;8882;53.192;8.184;2022-11-20T15:53:21;18.43;;;10.00;;
17528;SDS011;8882;53.192;8.184;2022-11-20T15:55:47;15.13;;;9.53;;
17528;SDS011;8882;53.192;8.184;2022-11-20T15:58:13;16.40;;;9.33;;
17528;SDS011;8882;53.192;8.184;2022-11-20T16:00:39;17.10;;;9.43;;
17528;SDS011;8882;53.192;8.184;2022-11-20T16:03:04;14.70;;;8.80;;
17528;SDS011;8882;53.192;8.184;2022-11-20T16:05:30;13.60;;;10.17;;
17528;SDS011;8882;53.192;8.184;2022-11-20T16:07:56;16.20;;;9.67;;
17528;SDS011;8882;53.192;8.184;2022-11-20T16:10:22;21.20;;;9.90;;
17528;SDS011;8882;53.192;8.184;2022-11-20T16:12:48;23.23;;;10.30;;
17528;SDS011;8882;53.192;8.184;2022-11-20T16:15:32;17.27;;;9.63;;
17528;SDS011;8882;53.192;8.184;2022-11-20T16:18:10;15.17;;;9.43;;
17528;SDS011;8882;53.192;8.184;2022-11-20T16:20:37;17.47;;;9.80;;
17528;SDS011;8882;53.192;8.184;2022-11-20T16:23:02;18.20;;;10.23;;
17528;SDS011;8882;53.192;8.184;2022-11-20T16:25:29;17.33;;;10.87;;
17528;SDS011;8882;53.192;8.184;2022-11-20T16:27:54;18.03;;;10.63;;
17528;SDS011;8882;53.192;8.184;2022-11-20T16:30:20;18.57;;;11.00;;
17528;SDS011;8882;53.192;8.184;2022-11-20T16:32:45;20.40;;;13.07;;
17528;SDS011;8882;53.192;8.184;2022-11-20T16:35:11;16.47;;;11.33;;
17528;SDS011;8882;53.192;8.184;2022-11-20T16:37:36;18.17;;;11.13;;
17528;SDS011;8882;53.192;8.184;2022-11-20T16:40:02;18.93;;;12.00;;
17528;SDS011;8882;53.192;8.184;2022-11-20T16:42:27;20.93;;;13.37;;
17528;SDS011;8882;53.192;8.184;2022-11-20T16:44:57;20.07;;;12.00;;
17528;SDS011;8882;53.192;8.184;2022-11-20T16:47:23;26.80;;;14.37;;
17528;SDS011;8882;53.192;8.184;2022-11-20T16:49:48;24.83;;;14.90;;
17528;SDS011;8882;53.192;8.184;2022-11-20T16:52:14;25.27;;;15.80;;
17528;SDS011;8882;53.192;8.184;2022-11-20T16:54:39;28.33;;;15.13;;
17528;SDS011;8882;53.192;8.184;2022-11-20T16:57:05;18.23;;;12.63;;
17528;SDS011;8882;53.192;8.184;2022-11-20T16:59:30;22.87;;;12.53;;
17528;SDS011;8882;53.192;8.184;2022-11-20T17:01:56;19.93;;;12.70;;
17528;SDS011;8882;53.192;8.184;2022-11-20T17:04:21;22.63;;;11.53;;
17528;SDS011;8882;53.192;8.184;2022-11-20T17:06:47;24.63;;;12.43;;
17528;SDS011;8882;53.192;8.184;2022-11-20T17:09:12;18.83;;;10.83;;
17528;SDS011;8882;53.192;8.184;2022-11-20T17:11:38;23.33;;;11.23;;
17528;SDS011;8882;53.192;8.184;2022-11-20T17:14:04;18.00;;;10.60;;
17528;SDS011;8882;53.192;8.184;2022-11-20T17:16:34;17.90;;;11.53;;
17528;SDS011;8882;53.192;8.184;2022-11-20T17:19:00;25.20;;;13.83;;
17528;SDS011;8882;53.192;8.184;2022-11-20T17:21:27;32.03;;;17.70;;
17528;SDS011;8882;53.192;8.184;2022-11-20T17:23:53;19.97;;;12.90;;
17528;SDS011;8882;53.192;8.184;2022-11-20T17:26:20;24.83;;;12.53;;
17528;SDS011;8882;53.192;8.184;2022-11-20T17:28:54;23.27;;;14.13;;
17528;SDS011;8882;53.192;8.184;2022-11-20T17:31:27;20.43;;;11.80;;
17528;SDS011;8882;53.192;8.184;2022-11-20T17:33:54;17.90;;;11.53;;
17528;SDS011;8882;53.192;8.184;2022-11-20T17:36:19;22.70;;;12.33;;
17528;SDS011;8882;53.192;8.184;2022-11-20T17:38:45;17.80;;;12.10;;
17528;SDS011;8882;53.192;8.184;2022-11-20T17:41:12;19.10;;;11.07;;
17528;SDS011;8882;53.192;8.184;2022-11-20T17:43:40;15.93;;;10.73;;
17528;SDS011;8882;53.192;8.184;2022-11-20T17:46:07;17.70;;;10.87;;
17528;SDS011;8882;53.192;8.184;2022-11-20T17:48:34;16.73;;;10.53;;
17528;SDS011;8882;53.192;8.184;2022-11-20T17:51:00;18.50;;;11.87;;
17528;SDS011;8882;53.192;8.184;2022-11-20T17:53:28;20.83;;;12.90;;
17528;SDS011;8882;53.192;8.184;2022-11-20T17:55:57;17.77;;;11.03;;
17528;SDS011;8882;53.192;8.184;2022-11-20T17:58:41;16.03;;;9.70;;
17528;SDS011;8882;53.192;8.184;2022-11-20T18:01:07;18.20;;;10.33;;
17528;SDS011;8882;53.192;8.184;2022-11-20T18:03:33;14.87;;;9.93;;
17528;SDS011;8882;53.192;8.184;2022-11-20T18:06:06;14.47;;;9.90;;
17528;SDS011;8882;53.192;8.184;2022-11-20T18:08:42;15.97;;;10.17;;
17528;SDS011;8882;53.192;8.184;2022-11-20T18:11:09;17.20;;;11.70;;
17528;SDS011;8882;53.192;8.184;2022-11-20T18:13:42;14.23;;;9.90;;
17528;SDS011;8882;53.192;8.184;2022-11-20T18:16:29;22.17;;;11.37;;
17528;SDS011;8882;53.192;8.184;2022-11-20T18:18:56;23.07;;;12.37;;
17528;SDS011;8882;53.192;8.184;2022-11-20T18:21:23;15.37;;;9.27;;
17528;SDS011;8882;53.192;8.184;2022-11-20T18:23:50;14.77;;;10.40;;
17528;SDS011;8882;53.192;8.184;2022-11-20T18:26:16;14.90;;;9.40;;
17528;SDS011;8882;53.192;8.184;2022-11-20T18:28:42;16.00;;;9.40;;
17528;SDS011;8882;53.192;8.184;2022-11-20T18:31:08;13.43;;;8.63;;
17528;SDS011;8882;53.192;8.184;2022-11-20T18:33:34;14.00;;;8.83;;
17528;SDS011;8882;53.192;8.184;2022-11-20T18:38:39;14.73;;;8.80;;
17528;SDS011;8882;53.192;8.184;2022-11-20T18:41:07;15.57;;;9.50;;
17528;SDS011;8882;53.192;8.184;2022-11-20T18:43:52;17.93;;;12.13;;
17528;SDS011;8882;53.192;8.184;2022-11-20T18:46:37;24.33;;;11.60;;
17528;SDS011;8882;53.192;8.184;2022-11-20T18:49:02;16.77;;;11.80;;
17528;SDS011;8882;53.192;8.184;2022-11-20T18:51:28;21.73;;;13.43;;
17528;SDS011;8882;53.192;8.184;2022-11-20T18:53:53;20.07;;;11.97;;
17528;SDS011;8882;53.192;8.184;2022-11-20T18:56:18;19.67;;;12.27;;
17528;SDS011;8882;53.192;8.184;2022-11-20T18:58:44;23.00;;;13.47;;
17528;SDS011;8882;53.192;8.184;2022-11-20T19:01:09;31.13;;;15.17;;
17528;SDS011;8882;53.192;8.184;2022-11-20T19:03:35;26.37;;;13.87;;
17528;SDS011;8882;53.192;8.184;2022-11-20T19:06:00;28.67;;;16.57;;
17528;SDS011;8882;53.192;8.184;2022-11-20T19:08:26;29.17;;;15.53;;
17528;SDS011;8882;53.192;8.184;2022-11-20T19:10:52;22.47;;;14.53;;
17528;SDS011;8882;53.192;8.184;2022-11-20T19:13:17;20.13;;;12.47;;
17528;SDS011;8882;53.192;8.184;2022-11-20T19:15:43;22.57;;;12.67;;
17528;SDS011;8882;53.192;8.184;2022-11-20T19:18:08;23.23;;;12.23;;
17528;SDS011;8882;53.192;8.184;2022-11-20T19:20:34;20.33;;;12.50;;
17528;SDS011;8882;53.192;8.184;2022-11-20T19:22:59;17.40;;;10.93;;
17528;SDS011;8882;53.192;8.184;2022-11-20T19:25:25;24.33;;;12.57;;
17528;SDS011;8882;53.192;8.184;2022-11-20T19:27:50;19.10;;;11.40;;
17528;SDS011;8882;53.192;8.184;2022-11-20T19:30:16;19.37;;;10.57;;
17528;SDS011;8882;53.192;8.184;2022-11-20T19:32:41;19.60;;;11.67;;
17528;SDS011;8882;53.192;8.184;2022-11-20T19:35:07;15.47;;;9.87;;
17528;SDS011;8882;53.192;8.184;2022-11-20T19:37:32;18.67;;;10.63;;
17528;SDS011;8882;53.192;8.184;2022-11-20T19:39:58;19.97;;;12.37;;
17528;SDS011;8882;53.192;8.184;2022-11-20T19:42:28;14.83;;;9.93;;
17528;SDS011;8882;53.192;8.184;2022-11-20T19:44:54;19.93;;;11.30;;
17528;SDS011;8882;53.192;8.184;2022-11-20T19:47:19;18.10;;;11.70;;
17528;SDS011;8882;53.192;8.184;2022-11-20T19:49:44;20.20;;;11.50;;
17528;SDS011;8882;53.192;8.184;2022-11-20T19:52:10;18.70;;;12.00;;
17528;SDS011;8882;53.192;8.184;2022-11-20T19:54:35;20.67;;;11.40;;
17528;SDS011;8882;53.192;8.184;2022-11-20T19:57:01;16.40;;;10.33;;
17528;SDS011;8882;53.192;8.184;2022-11-20T19:59:26;20.57;;;12.07;;
17528;SDS011;8882;53.192;8.184;2022-11-20T20:01:52;17.93;;;10.67;;
17528;SDS011;8882;53.192;8.184;2022-11-20T20:04:17;16.67;;;10.53;;
17528;SDS011;8882;53.192;8.184;2022-11-20T20:06:43;15.40;;;8.80;;
17528;SDS011;8882;53.192;8.184;2022-11-20T20:09:10;13.97;;;8.03;;
17528;SDS011;8882;53.192;8.184;2022-11-20T20:11:36;12.73;;;8.13;;
17528;SDS011;8882;53.192;8.184;2022-11-20T20:14:03;16.30;;;9.27;;
17528;SDS011;8882;53.192;8.184;2022-11-20T20:16:34;16.27;;;9.73;;
17528;SDS011;8882;53.192;8.184;2022-11-20T20:19:00;18.53;;;9.87;;
17528;SDS011;8882;53.192;8.184;2022-11-20T20:21:27;14.70;;;8.70;;
17528;SDS011;8882;53.192;8.184;2022-11-20T20:23:54;15.77;;;9.87;;
17528;SDS011;8882;53.192;8.184;2022-11-20T20:26:24;20.00;;;9.73;;
17528;SDS011;8882;53.192;8.184;2022-11-20T20:28:51;22.50;;;11.57;;
17528;SDS011;8882;53.192;8.184;2022-11-20T20:31:17;22.77;;;10.70;;
17528;SDS011;8882;53.192;8.184;2022-11-20T20:33:44;16.70;;;9.60;;
17528;SDS011;8882;53.192;8.184;2022-11-20T20:36:11;17.67;;;10.67;;
17528;SDS011;8882;53.192;8.184;2022-11-20T20:38:39;16.07;;;10.67;;
17528;SDS011;8882;53.192;8.184;2022-11-20T20:41:06;16.00;;;9.80;;
17528;SDS011;8882;53.192;8.184;2022-11-20T20:43:32;17.43;;;10.40;;
17528;SDS011;8882;53.192;8.184;2022-11-20T20:46:17;18.73;;;10.20;;
17528;SDS011;8882;53.192;8.184;2022-11-20T20:48:43;17.27;;;9.47;;
17528;SDS011;8882;53.192;8.184;2022-11-20T20:51:09;12.63;;;8.13;;
17528;SDS011;8882;53.192;8.184;2022-11-20T20:53:34;13.90;;;9.13;;
17528;SDS011;8882;53.192;8.184;2022-11-20T20:56:00;16.67;;;8.63;;
17528;SDS011;8882;53.192;8.184;2022-11-20T20:58:27;16.37;;;9.47;;
17528;SDS011;8882;53.192;8.184;2022-11-20T21:00:54;17.07;;;9.43;;
17528;SDS011;8882;53.192;8.184;2022-11-20T21:03:25;14.67;;;9.23;;
17528;SDS011;8882;53.192;8.184;2022-11-20T21:05:54;16.20;;;8.80;;
17528;SDS011;8882;53.192;8.184;2022-11-20T21:08:21;15.30;;;10.03;;
17528;SDS011;8882;53.192;8.184;2022-11-20T21:10:52;16.23;;;10.27;;
17528;SDS011;8882;53.192;8.184;2022-11-20T21:13:19;17.10;;;10.93;;
17528;SDS011;8882;53.192;8.184;2022-11-20T21:15:46;18.43;;;10.07;;
17528;SDS011;8882;53.192;8.184;2022-11-20T21:18:17;15.20;;;9.70;;
17528;SDS011;8882;53.192;8.184;2022-11-20T21:20:44;15.13;;;9.23;;
17528;SDS011;8882;53.192;8.184;2022-11-20T21:23:29;16.93;;;9.77;;
17528;SDS011;8882;53.192;8.184;2022-11-20T21:25:55;17.60;;;9.73;;
17528;SDS011;8882;53.192;8.184;2022-11-20T21:28:23;21.10;;;11.77;;
17528;SDS011;8882;53.192;8.184;2022-11-20T21:30:49;20.17;;;11.17;;
17528;SDS011;8882;53.192;8.184;2022-11-20T21:33:14;18.17;;;10.90;;
17528;SDS011;8882;53.192;8.184;2022-11-20T21:35:40;21.03;;;10.47;;
17528;SDS011;8882;53.192;8.184;2022-11-20T21:38:05;15.93;;;9.90;;
17528;SDS011;8882;53.192;8.184;2022-11-20T21:40:31;18.17;;;9.77;;
17528;SDS011;8882;53.192;8.184;2022-11-20T21:42:56;15.63;;;10.00;;
17528;SDS011;8882;53.192;8.184;2022-11-20T21:45:22;16.43;;;8.90;;
17528;SDS011;8882;53.192;8.184;2022-11-20T21:47:48;14.20;;;9.33;;
17528;SDS011;8882;53.192;8.184;2022-11-20T21:50:14;19.53;;;10.40;;
17528;SDS011;8882;53.192;8.184;2022-11-20T21:52:40;12.83;;;9.10;;
17528;SDS011;8882;53.192;8.184;2022-11-20T21:55:06;16.13;;;9.90;;
17528;SDS011;8882;53.192;8.184;2022-11-20T21:57:32;14.47;;;9.33;;
17528;SDS011;8882;53.192;8.184;2022-11-20T21:59:58;15.10;;;8.90;;
